Time;durP1;ratioP1;P1;durP2;ratioP2;P2;SDS_P1;SDS_P2;PMS_P1;PMS_P2;Temp;Humidity;BMP_temperature;BMP_pressure;BME280_temperature;BME280_humidity;BME280_pressure;Samples;Min_cycle;Max_cycle;Signal;HPM_P1;HPM_P2
2022/04/28 00:00:37;165263.00;0.55;286.11;0.00;0.00;0.62;;;;;13.30;1.00;;;;;;2284137;60;1401;-88
2022/04/28 00:05:35;330540.00;1.10;570.41;0.00;0.00;0.62;;;;;13.60;1.00;;;;;;2281892;60;1972;-88
2022/04/28 00:08:03;110907.00;0.37;192.40;0.00;0.00;0.62;;;;;13.50;1.00;;;;;;2280177;60;1193;-88
2022/04/28 00:10:30;274506.00;0.92;474.09;0.00;0.00;0.62;;;;;13.70;1.00;;;;;;2280233;60;1478;-87
2022/04/28 00:12:58;183481.00;0.61;317.48;0.00;0.00;0.62;;;;;13.70;1.00;;;;;;2284064;40;3624;-87
2022/04/28 00:15:25;71185.00;0.24;123.81;0.00;0.00;0.62;;;;;13.70;1.00;;;;;;2284952;60;1120;-86
2022/04/28 00:20:19;353861.00;1.18;610.50;0.00;0.00;0.62;;;;;13.60;1.00;;;;;;2293813;40;3493;-87
2022/04/28 00:22:48;87395.00;0.29;151.81;0.00;0.00;0.62;;;;;13.90;1.00;;;;;;2285059;60;1159;-87
2022/04/28 00:25:15;53840.00;0.18;93.83;0.00;0.00;0.62;;;;;14.50;1.00;;;;;;2285002;60;2007;-87
2022/04/28 00:27:42;23253.00;0.08;40.90;0.00;0.00;0.62;;;;;14.60;1.00;;;;;;2284998;60;1155;-88
2022/04/28 00:30:09;0.00;0.00;0.62;0.00;0.00;0.62;;;;;14.60;1.00;;;;;;2285039;60;1347;-89
2022/04/28 00:32:37;103079.00;0.34;178.89;0.00;0.00;0.62;;;;;14.70;1.00;;;;;;2284970;60;1805;-88
2022/04/28 00:37:33;185026.00;0.62;320.14;0.00;0.00;0.62;;;;;14.50;1.00;;;;;;2278582;61;1312;-87
2022/04/28 00:40:03;135661.00;0.45;235.09;0.00;0.00;0.62;;;;;14.60;1.00;;;;;;2284707;40;3736;-87
2022/04/28 00:42:30;88618.00;0.30;153.92;0.00;0.00;0.62;;;;;14.30;1.00;;;;;;2284971;60;1770;-87
2022/04/28 00:44:57;232610.00;0.78;402.04;0.00;0.00;0.62;;;;;14.20;1.00;;;;;;2286222;40;3559;-88
2022/04/28 00:50:38;156469.00;0.52;270.96;0.00;0.00;0.62;;;;;14.20;1.00;;;;;;2276817;61;1445;-88
2022/04/28 00:52:58;54759.00;0.18;95.42;0.00;0.00;0.62;;;;;13.80;1.00;;;;;;2276796;61;1269;-87
2022/04/28 00:55:28;45409.00;0.15;79.25;0.00;0.00;0.62;;;;;13.40;1.00;;;;;;2276745;61;1637;-88
2022/04/28 00:57:56;74086.00;0.25;128.82;0.00;0.00;0.62;;;;;13.10;1.00;;;;;;2276765;61;1156;-89
2022/04/28 01:00:23;128721.00;0.43;223.12;0.00;0.00;0.62;;;;;13.10;1.00;;;;;;2276810;61;1359;-88
2022/04/28 01:02:51;169657.00;0.57;293.68;0.00;0.00;0.62;;;;;13.00;1.00;;;;;;2287778;55;3793;-89
2022/04/28 01:05:18;140935.00;0.47;244.18;0.00;0.00;0.62;;;;;13.20;1.00;;;;;;2284621;60;1927;-88
2022/04/28 01:07:48;76871.00;0.26;133.63;0.00;0.00;0.62;;;;;13.10;1.00;;;;;;2284881;60;1119;-88
2022/04/28 01:12:49;486442.00;1.62;838.48;0.00;0.00;0.62;;;;;13.10;1.00;;;;;;2281774;56;3608;-89
2022/04/28 01:15:16;244420.00;0.81;422.35;0.00;0.00;0.62;;;;;13.30;1.00;;;;;;2276476;61;1670;-88
2022/04/28 01:25:13;202453.00;0.67;350.15;0.00;0.00;0.62;;;;;13.70;1.00;;;;;;2282255;55;3672;-87
2022/04/28 01:27:42;244752.00;0.82;422.92;0.00;0.00;0.62;;;;;13.70;1.00;;;;;;2309095;56;3727;-87
2022/04/28 01:30:15;301316.00;1.00;520.18;0.00;0.00;0.62;;;;;13.90;1.00;;;;;;2297000;39;3620;-87
2022/04/28 01:32:42;147760.00;0.49;255.95;0.00;0.00;0.62;;;;;13.80;1.00;;;;;;2303552;55;3758;-88
2022/04/28 01:35:10;261228.00;0.87;451.26;11487.00;0.04;20.53;;;;;13.50;1.00;;;;;;2284825;60;1596;-88
2022/04/28 01:42:38;461458.00;1.54;795.49;44947.00;0.15;78.45;;;;;12.70;1.00;;;;;;2282314;61;1462;-87
2022/04/28 01:45:07;189941.00;0.63;328.61;0.00;0.00;0.62;;;;;12.80;1.00;;;;;;2280625;61;2002;-88
2022/04/28 01:47:34;1768.00;0.01;3.68;0.00;0.00;0.62;;;;;13.00;1.00;;;;;;2280725;61;1457;-87
2022/04/28 01:50:01;103781.00;0.35;180.10;0.00;0.00;0.62;;;;;13.30;1.00;;;;;;2280667;61;1588;-87
2022/04/28 01:55:12;45294.00;0.15;79.05;0.00;0.00;0.62;;;;;13.50;1.00;;;;;;2280784;61;674;-89
2022/04/28 01:57:41;34429.00;0.11;60.25;0.00;0.00;0.62;;;;;14.00;1.00;;;;;;2280697;61;1780;-89
2022/04/28 02:00:10;232460.00;0.77;401.78;0.00;0.00;0.62;;;;;13.90;1.00;;;;;;2280513;61;1620;-88
2022/04/28 02:02:38;228015.00;0.76;394.13;0.00;0.00;0.62;;;;;13.40;1.00;;;;;;2280587;61;1552;-87
2022/04/28 02:05:06;177771.00;0.59;307.65;0.00;0.00;0.62;;;;;13.30;1.00;;;;;;2280575;61;1935;-88
2022/04/28 02:07:33;221136.00;0.74;382.30;0.00;0.00;0.62;;;;;13.00;1.00;;;;;;2280806;39;3610;-88
2022/04/28 02:12:34;353705.00;1.18;610.23;0.00;0.00;0.62;;;;;13.30;1.00;;;;;;2298909;39;3527;-87
2022/04/28 02:15:06;147257.00;0.49;255.08;0.00;0.00;0.62;;;;;13.40;1.00;;;;;;2276566;61;1492;-88
2022/04/28 02:17:38;166754.00;0.56;288.68;0.00;0.00;0.62;;;;;13.30;1.00;;;;;;2276583;61;1504;-88
2022/04/28 02:20:06;67388.00;0.22;117.25;0.00;0.00;0.62;;;;;13.20;1.00;;;;;;2276495;61;1522;-88
2022/04/28 02:22:34;174924.00;0.58;302.75;0.00;0.00;0.62;;;;;13.50;1.00;;;;;;2276551;61;950;-89
2022/04/28 02:25:01;134113.00;0.45;232.42;0.00;0.00;0.62;;;;;14.00;1.00;;;;;;2276448;61;2008;-88
2022/04/28 02:27:28;99495.00;0.33;172.70;0.00;0.00;0.62;;;;;13.20;1.00;;;;;;2276577;61;869;-87
2022/04/28 02:29:56;411715.00;1.37;709.95;21989.00;0.07;38.71;;;;;13.30;1.00;;;;;;2276482;61;1564;-89
2022/04/28 02:32:25;266315.00;0.89;460.01;0.00;0.00;0.62;;;;;13.10;1.00;;;;;;2281804;40;3576;-88
2022/04/28 02:34:53;257983.00;0.86;445.68;0.00;0.00;0.62;;;;;12.50;1.00;;;;;;2276579;61;1494;-86
2022/04/28 02:37:21;175887.00;0.59;304.41;0.00;0.00;0.62;;;;;13.10;1.00;;;;;;2276462;61;982;-88
2022/04/28 02:39:48;258153.00;0.86;445.97;0.00;0.00;0.62;;;;;13.40;1.00;;;;;;2276452;61;1613;-87
2022/04/28 02:42:15;107766.00;0.36;186.98;0.00;0.00;0.62;;;;;13.70;1.00;;;;;;2276091;61;1061;-85
2022/04/28 02:44:45;137213.00;0.46;237.77;0.00;0.00;0.62;;;;;14.00;1.00;;;;;;2276371;61;1866;-87
2022/04/28 02:47:12;187585.00;0.63;324.55;0.00;0.00;0.62;;;;;14.10;1.00;;;;;;2303478;40;3580;-87
2022/04/28 02:54:44;403524.00;1.35;695.86;0.00;0.00;0.62;;;;;13.80;1.00;;;;;;2284827;56;3591;-90
2022/04/28 02:57:11;331204.00;1.10;571.56;56862.00;0.19;99.05;;;;;14.20;1.00;;;;;;2300380;39;3609;-89
2022/04/28 02:59:38;167406.00;0.56;289.80;0.00;0.00;0.62;;;;;13.90;1.00;;;;;;2284508;60;1407;-85
2022/04/28 03:02:05;238509.00;0.80;412.19;0.00;0.00;0.62;;;;;13.60;1.00;;;;;;2284375;60;1540;-87
2022/04/28 03:04:32;92314.00;0.31;160.30;0.00;0.00;0.62;;;;;13.60;1.00;;;;;;2284350;60;902;-88
2022/04/28 03:14:44;215199.00;0.72;372.08;0.00;0.00;0.62;;;;;13.30;1.00;;;;;;2277723;61;1359;-86
2022/04/28 03:17:11;93227.00;0.31;161.88;0.00;0.00;0.62;;;;;13.10;1.00;;;;;;2276171;61;992;-86
2022/04/28 03:19:38;177817.00;0.59;307.73;0.00;0.00;0.62;;;;;12.90;1.00;;;;;;2321494;40;3619;-88
2022/04/28 03:24:34;377864.00;1.26;651.75;6797.00;0.02;12.40;;;;;12.70;1.00;;;;;;2277729;61;1427;-86
2022/04/28 03:32:01;354651.00;1.18;611.86;0.00;0.00;0.62;;;;;12.70;1.00;;;;;;2273650;61;1336;-86
2022/04/28 03:36:57;673101.00;2.24;1160.62;0.00;0.00;0.62;;;;;13.40;1.00;;;;;;2281725;61;1390;-87
2022/04/28 03:39:24;444476.00;1.48;766.28;0.00;0.00;0.62;;;;;13.30;1.00;;;;;;2283637;39;3566;-88
2022/04/28 03:44:20;404855.00;1.35;698.15;0.00;0.00;0.62;;;;;13.00;1.00;;;;;;2277566;61;1391;-86
2022/04/28 03:46:47;111375.00;0.37;193.20;0.00;0.00;0.62;;;;;12.50;1.00;;;;;;2275766;61;1923;-86
2022/04/28 03:49:16;187103.00;0.62;323.72;0.00;0.00;0.62;;;;;12.40;1.00;;;;;;2275853;61;1547;-86
2022/04/28 03:51:43;192526.00;0.64;333.06;26686.00;0.09;46.85;;;;;12.00;1.00;;;;;;2254899;39;1319574;-86
2022/04/28 03:59:09;386705.00;1.29;666.95;0.00;0.00;0.62;;;;;12.00;1.00;;;;;;2281860;61;1308;-89
2022/04/28 04:01:36;180935.00;0.60;313.10;0.00;0.00;0.62;;;;;12.10;1.00;;;;;;2280213;61;1597;-86
2022/04/28 04:04:03;77353.00;0.26;134.46;0.00;0.00;0.62;;;;;12.40;1.00;;;;;;2285755;55;3774;-88
2022/04/28 04:11:30;500022.00;1.67;861.86;10628.00;0.04;19.04;;;;;12.50;1.00;;;;;;2283184;39;3571;-89
2022/04/28 04:17:06;247417.00;0.82;427.51;0.00;0.00;0.62;;;;;12.60;1.00;;;;;;2275962;55;3619;-86
2022/04/28 04:22:02;802855.00;2.68;1386.10;0.00;0.00;0.62;;;;;12.00;1.00;;;;;;825380;56;3580;-85
2022/04/28 04:29:28;253938.00;0.85;438.72;0.00;0.00;0.62;;;;;12.70;1.00;;;;;;2277631;61;1416;-86
2022/04/28 04:34:25;616140.00;2.05;1062.10;0.00;0.00;0.62;;;;;13.10;1.00;;;;;;2281958;61;1422;-88
2022/04/28 04:36:54;194432.00;0.65;336.34;0.00;0.00;0.62;;;;;12.60;1.00;;;;;;2284993;39;3592;-88
2022/04/28 04:41:49;342560.00;1.14;591.07;0.00;0.00;0.62;;;;;12.70;1.00;;;;;;2273529;61;1388;-87
2022/04/28 04:44:16;193817.00;0.65;335.28;0.00;0.00;0.62;;;;;12.50;1.00;;;;;;2276923;55;3790;-85
2022/04/28 04:49:17;391582.00;1.31;675.33;0.00;0.00;0.62;;;;;13.10;1.00;;;;;;2274191;61;1343;-90
2022/04/28 05:01:45;229679.00;0.77;397.00;0.00;0.00;0.62;;;;;11.50;1.00;;;;;;2282250;61;1407;-87
2022/04/28 05:04:12;295415.00;0.98;510.04;0.00;0.00;0.62;;;;;11.60;1.00;;;;;;2280755;61;1505;-88
2022/04/28 05:06:41;237335.00;0.79;410.17;0.00;0.00;0.62;;;;;11.90;1.00;;;;;;2280792;61;1996;-85
2022/04/28 05:16:35;466750.00;1.56;804.60;0.00;0.00;0.62;;;;;11.70;1.00;;;;;;2303654;40;3713;-87
2022/04/28 05:19:02;213319.00;0.71;368.85;0.00;0.00;0.62;;;;;11.90;1.00;;;;;;2286811;55;3731;-86
2022/04/28 05:21:31;267071.00;0.89;461.31;0.00;0.00;0.62;;;;;11.90;1.00;;;;;;2276362;61;1481;-90
2022/04/28 05:23:59;221441.00;0.74;382.82;0.00;0.00;0.62;;;;;11.50;1.00;;;;;;2281400;55;3739;-89
2022/04/28 05:26:26;119293.00;0.40;206.86;16471.00;0.05;29.16;;;;;11.50;1.00;;;;;;2284758;60;1999;-88
2022/04/28 05:28:54;157061.00;0.52;271.98;0.00;0.00;0.62;;;;;11.50;1.00;;;;;;2284754;60;1588;-90
2022/04/28 05:31:21;171849.00;0.57;297.45;0.00;0.00;0.62;;;;;12.20;1.00;;;;;;2284773;60;1458;-87
2022/04/28 05:33:48;181301.00;0.60;313.73;0.00;0.00;0.62;;;;;13.80;1.00;;;;;;2284952;60;938;-88
2022/04/28 05:36:16;107667.00;0.36;186.80;0.00;0.00;0.62;;;;;15.10;1.00;;;;;;2284745;60;1596;-88
2022/04/28 05:38:44;413755.00;1.38;713.45;0.00;0.00;0.62;;;;;16.40;1.00;;;;;;2284719;60;1623;-86
2022/04/28 05:41:13;186105.00;0.62;322.00;5441.00;0.02;10.05;;;;;17.70;1.00;;;;;;2284717;60;1443;-86
2022/04/28 05:46:25;174545.00;0.58;302.09;81297.00;0.27;141.28;;;;;19.50;1.00;;;;;;2284878;60;1918;-87
2022/04/28 05:48:53;257507.00;0.86;444.86;0.00;0.00;0.62;;;;;20.40;1.00;;;;;;2284729;60;1377;-87
2022/04/28 05:51:20;190740.00;0.64;329.98;0.00;0.00;0.62;;;;;20.80;1.00;;;;;;2284872;60;1648;-88
2022/04/28 05:53:48;199817.00;0.67;345.61;0.00;0.00;0.62;;;;;21.10;1.00;;;;;;2284719;60;1505;-87
2022/04/28 05:56:16;149449.00;0.50;258.86;0.00;0.00;0.62;;;;;21.50;1.00;;;;;;2284759;60;1560;-87
2022/04/28 05:58:43;211623.00;0.71;365.93;0.00;0.00;0.62;;;;;22.30;1.00;;;;;;2284765;60;1478;-88
2022/04/28 06:01:10;177763.00;0.59;307.64;27584.00;0.09;48.40;;;;;23.00;1.00;;;;;;2284877;60;1286;-88
2022/04/28 06:03:39;37699.00;0.13;65.91;0.00;0.00;0.62;;;;;23.20;1.00;;;;;;2284777;60;1461;-87
2022/04/28 06:06:08;22520.00;0.08;39.63;0.00;0.00;0.62;;;;;23.20;1.00;;;;;;2284689;60;1919;-88
2022/04/28 06:08:35;153139.00;0.51;265.22;0.00;0.00;0.62;;;;;23.50;1.00;;;;;;2284637;60;1494;-89
2022/04/28 06:11:02;132264.00;0.44;229.23;0.00;0.00;0.62;;;;;23.60;1.00;;;;;;2284645;60;1399;-89
2022/04/28 06:13:31;101453.00;0.34;176.08;0.00;0.00;0.62;;;;;23.90;1.00;;;;;;2284729;60;2000;-86
2022/04/28 06:15:59;123015.00;0.41;213.28;0.00;0.00;0.62;;;;;23.80;1.00;;;;;;2284692;60;1762;-89
2022/04/28 06:18:27;123450.00;0.41;214.03;0.00;0.00;0.62;;;;;24.00;1.00;;;;;;2284806;60;1013;-87
2022/04/28 06:20:54;76697.00;0.26;133.33;0.00;0.00;0.62;;;;;24.10;1.00;;;;;;2284659;60;2178;-84
2022/04/28 06:23:21;0.00;0.00;0.62;0.00;0.00;0.62;;;;;24.50;1.00;;;;;;2284636;60;1168;-89
2022/04/28 06:25:48;70015.00;0.23;121.79;0.00;0.00;0.62;;;;;25.00;1.00;;;;;;2284619;60;1616;-88
2022/04/28 06:28:15;243680.00;0.81;421.08;0.00;0.00;0.62;;;;;24.80;1.00;;;;;;2284797;60;2025;-90
2022/04/28 06:30:44;21637.00;0.07;38.10;0.00;0.00;0.62;;;;;25.20;1.00;;;;;;2284435;60;1276;-85
2022/04/28 06:33:11;48518.00;0.16;84.62;0.00;0.00;0.62;;;;;25.30;1.00;;;;;;2284517;60;1424;-86
2022/04/28 06:35:38;429125.00;1.43;739.88;0.00;0.00;0.62;;;;;25.00;1.00;;;;;;2284726;60;933;-85
2022/04/28 06:38:05;0.00;0.00;0.62;0.00;0.00;0.62;;;;;25.70;1.00;;;;;;2284639;60;1089;-87
2022/04/28 06:40:32;117239616.00;390.80;65275488.00;0.00;0.00;0.62;;;;;25.00;1.00;;;;;;2284635;60;1270;-86
2022/04/28 06:42:59;54546.00;0.18;95.05;0.00;0.00;0.62;;;;;25.60;1.00;;;;;;2284727;60;1226;-86
2022/04/28 06:45:26;51717.00;0.17;90.16;0.00;0.00;0.62;;;;;25.40;1.00;;;;;;2284759;60;1001;-87
2022/04/28 06:47:54;9637.00;0.03;17.32;0.00;0.00;0.62;;;;;25.30;1.00;;;;;;2284612;60;1996;-87
2022/04/28 06:50:21;19384.00;0.06;34.20;0.00;0.00;0.62;;;;;25.60;1.00;;;;;;2284639;60;1388;-87
2022/04/28 06:52:48;45741.00;0.15;79.82;0.00;0.00;0.62;;;;;25.70;1.00;;;;;;2284720;60;914;-87
2022/04/28 06:55:15;0.00;0.00;0.62;0.00;0.00;0.62;;;;;25.90;1.00;;;;;;2284726;60;1088;-86
2022/04/28 06:57:42;0.00;0.00;0.62;0.00;0.00;0.62;;;;;26.20;1.00;;;;;;2284548;60;1042;-87
2022/04/28 07:00:10;91876.00;0.31;159.55;0.00;0.00;0.62;;;;;26.10;1.00;;;;;;2284539;60;1441;-85
2022/04/28 07:02:37;34555.00;0.12;60.47;0.00;0.00;0.62;;;;;26.40;1.00;;;;;;2284628;60;1009;-87
2022/04/28 07:05:07;28470.00;0.09;49.93;0.00;0.00;0.62;;;;;26.60;1.00;;;;;;2284468;60;1059;-86
2022/04/28 07:07:34;60782.00;0.20;105.83;0.00;0.00;0.62;;;;;26.90;1.00;;;;;;2284508;60;2005;-87
2022/04/28 07:10:01;0.00;0.00;0.62;0.00;0.00;0.62;;;;;27.20;1.00;;;;;;2284412;60;1291;-87
2022/04/28 07:12:28;16206.00;0.05;28.70;0.00;0.00;0.62;;;;;27.50;1.00;;;;;;2284555;60;1072;-87
2022/04/28 07:14:55;196858.00;0.66;340.52;65876.00;0.22;114.63;;;;;27.70;1.00;;;;;;2284585;60;958;-88
2022/04/28 07:17:22;99007.00;0.33;171.86;6987.00;0.02;12.73;;;;;27.00;1.00;;;;;;2284590;60;1088;-86
2022/04/28 07:19:48;176659.00;0.59;305.74;0.00;0.00;0.62;;;;;26.80;1.00;;;;;;2284517;60;1379;-88
2022/04/28 07:22:17;179609.00;0.60;310.82;33457.00;0.11;58.57;;;;;26.00;1.00;;;;;;2284405;60;986;-88
2022/04/28 07:24:44;35145.00;0.12;61.49;0.00;0.00;0.62;;;;;26.30;1.00;;;;;;2284504;60;1029;-87
2022/04/28 07:27:11;40010.00;0.13;69.91;0.00;0.00;0.62;;;;;26.50;1.00;;;;;;2284505;60;1911;-87
2022/04/28 07:29:38;41585.00;0.14;72.63;0.00;0.00;0.62;;;;;25.60;1.00;;;;;;2284462;60;1379;-87
2022/04/28 07:32:07;180694.00;0.60;312.68;0.00;0.00;0.62;;;;;25.10;1.00;;;;;;2284450;60;1782;-87
2022/04/28 07:34:34;0.00;0.00;0.62;0.00;0.00;0.62;;;;;25.10;1.00;;;;;;2284421;60;1601;-85
2022/04/28 07:37:01;44240.00;0.15;77.22;0.00;0.00;0.62;;;;;26.20;1.00;;;;;;2284458;60;1591;-87
2022/04/28 07:39:29;45372.00;0.15;79.18;0.00;0.00;0.62;;;;;27.00;1.00;;;;;;2284466;60;1270;-86
2022/04/28 07:41:56;0.00;0.00;0.62;0.00;0.00;0.62;;;;;26.70;1.00;;;;;;2284486;60;1038;-87
2022/04/28 07:44:23;0.00;0.00;0.62;0.00;0.00;0.62;;;;;27.00;1.00;;;;;;2284410;60;1077;-88
2022/04/28 07:46:50;13136.00;0.04;23.38;0.00;0.00;0.62;;;;;26.80;1.00;;;;;;2284374;60;1919;-88
2022/04/28 07:49:17;2281.00;0.01;4.57;0.00;0.00;0.62;;;;;27.10;1.00;;;;;;2284364;60;1266;-88
2022/04/28 07:51:44;0.00;0.00;0.62;0.00;0.00;0.62;;;;;26.90;1.00;;;;;;2284369;60;1111;-85
2022/04/28 07:54:11;123675.00;0.41;214.42;0.00;0.00;0.62;;;;;26.00;1.00;;;;;;2284459;60;1064;-87
2022/04/28 07:56:40;76443.00;0.25;132.89;0.00;0.00;0.62;;;;;25.60;1.00;;;;;;2284420;60;1085;-86
2022/04/28 07:59:07;118498184.00;394.99;67402280.00;0.00;0.00;0.62;;;;;26.00;1.00;;;;;;2284407;60;1054;-86
2022/04/28 08:01:34;60299.00;0.20;104.99;0.00;0.00;0.62;;;;;25.60;1.00;;;;;;2284357;60;1645;-87
2022/04/28 08:04:01;7871.00;0.03;14.26;0.00;0.00;0.62;;;;;25.30;1.00;;;;;;2284364;60;1063;-88
2022/04/28 08:06:28;38495.00;0.13;67.28;0.00;0.00;0.62;;;;;25.40;1.00;;;;;;2284298;60;1910;-87
2022/04/28 08:08:55;6556.00;0.02;11.98;0.00;0.00;0.62;;;;;25.30;1.00;;;;;;2284217;60;1025;-84
2022/04/28 08:11:22;346447.00;1.15;597.75;12806.00;0.04;22.81;;;;;25.80;1.00;;;;;;2284164;60;1613;-86
2022/04/28 08:13:51;371740.00;1.24;641.23;56850.00;0.19;99.03;;;;;25.80;1.00;;;;;;2284400;60;1483;-85
2022/04/28 08:16:18;146763.00;0.49;254.23;0.00;0.00;0.62;;;;;25.10;1.00;;;;;;2284284;60;1456;-85
2022/04/28 08:18:45;707699.00;2.36;1220.59;54366.00;0.18;94.74;;;;;25.10;1.00;;;;;;2284211;60;1632;-87
2022/04/28 08:21:12;1222531.00;4.08;2131.01;40976.00;0.14;71.58;;;;;25.20;1.00;;;;;;2284203;60;1361;-88
2022/04/28 08:23:39;940522.00;3.14;1627.40;30836.00;0.10;54.03;;;;;24.70;1.00;;;;;;2284289;60;1290;-88
2022/04/28 08:26:06;1259094.00;4.20;2197.44;51518.00;0.17;89.81;;;;;24.20;1.00;;;;;;2284275;60;1150;-89
2022/04/28 08:28:33;1031321.00;3.44;1788.02;88141.00;0.29;153.10;;;;;24.10;1.00;;;;;;2284297;60;2011;-87
2022/04/28 08:31:01;951754.00;3.17;1647.20;81346.00;0.27;141.36;;;;;24.30;1.00;;;;;;2284204;60;1579;-88
2022/04/28 08:33:29;976063.00;3.25;1690.12;65776.00;0.22;114.46;;;;;24.20;1.00;;;;;;2284670;60;1031;-88
2022/04/28 08:35:55;1591513.00;5.31;2816.53;85680.00;0.29;148.85;;;;;23.30;1.00;;;;;;2284981;60;1118;-87
2022/04/28 08:38:23;1041197.00;3.47;1805.57;54996.00;0.18;95.83;;;;;23.10;1.00;;;;;;2284932;60;1599;-89
2022/04/28 08:40:56;785740.00;2.62;1356.27;86919.00;0.29;150.99;;;;;22.90;1.00;;;;;;2284979;60;1310;-87
2022/04/28 08:43:23;1533250.00;5.11;2705.84;180612.00;0.60;312.54;;;;;23.70;1.00;;;;;;2284713;60;1054;-87
2022/04/28 08:48:51;40874.00;0.14;71.40;0.00;0.00;0.62;;;;;22.20;1.00;;;;;;2285017;60;1994;-88
2022/04/28 08:51:20;1377916.00;4.59;2415.43;101220.00;0.34;175.68;;;;;21.20;1.00;;;;;;2284920;60;1530;-88
2022/04/28 08:53:49;919731.00;3.07;1590.80;67884.00;0.23;118.10;;;;;21.80;1.00;;;;;;2284978;60;944;-87
2022/04/28 08:56:17;771498.00;2.57;1331.46;71181.00;0.24;123.80;;;;;22.50;1.00;;;;;;2284999;60;1041;-87
2022/04/28 08:58:44;583152.00;1.94;1005.14;35737.00;0.12;62.51;;;;;23.60;1.00;;;;;;2284839;60;1038;-88
2022/04/28 09:01:12;1040550.00;3.47;1804.42;52717.00;0.18;91.88;;;;;24.30;1.00;;;;;;2284933;60;1397;-86
2022/04/28 09:03:40;1530689.00;5.10;2701.00;242612.00;0.81;419.24;;;;;24.20;1.00;;;;;;2284822;60;1675;-88
2022/04/28 09:06:18;974133.00;3.25;1686.71;39086.00;0.13;68.31;;;;;23.80;1.00;;;;;;2284866;60;1618;-88
2022/04/28 09:08:45;1162115.00;3.87;2021.87;215273.00;0.72;372.21;;;;;23.10;1.00;;;;;;2284886;60;1929;-88
2022/04/28 09:11:18;735273.00;2.45;1268.46;59350.00;0.20;103.35;;;;;22.20;1.00;;;;;;2284834;60;1389;-87
2022/04/28 09:16:36;521246.00;1.74;898.41;43625.00;0.15;76.16;;;;;20.50;1.00;;;;;;2284986;60;866;-88
2022/04/28 09:19:03;1045034.00;3.48;1812.40;146241.00;0.49;253.33;;;;;20.40;1.00;;;;;;2284876;60;993;-87
2022/04/28 09:21:33;841144.00;2.80;1452.98;37454.00;0.12;65.48;;;;;20.40;1.00;;;;;;2284793;60;1508;-87
2022/04/28 09:24:01;1081002.00;3.60;1876.48;121080.00;0.40;209.95;;;;;20.50;1.00;;;;;;2284790;60;1483;-88
2022/04/28 09:26:28;957202.00;3.19;1656.82;85184.00;0.28;147.99;;;;;20.70;1.00;;;;;;2284961;60;1337;-88
2022/04/28 09:28:55;1073426.00;3.58;1862.96;107763.00;0.36;186.97;;;;;21.00;1.00;;;;;;2284878;60;2001;-88
2022/04/28 09:31:23;1349290.00;4.50;2362.60;159220.00;0.53;275.70;;;;;20.60;1.00;;;;;;2284867;60;1403;-88
2022/04/28 09:33:52;1087583.00;3.63;1888.23;76743.00;0.26;133.41;;;;;20.90;1.00;;;;;;2284962;60;1032;-87
2022/04/28 09:36:19;984965.00;3.28;1705.86;96395.00;0.32;167.35;;;;;21.00;1.00;;;;;;2284844;60;1608;-88
2022/04/28 09:38:46;1270565.00;4.24;2218.34;261940.00;0.87;452.48;;;;;20.80;1.00;;;;;;2284907;60;1139;-90
2022/04/28 09:43:58;794550.00;2.65;1371.62;120433.00;0.40;208.83;;;;;20.20;1.00;;;;;;2284952;60;738;-88
2022/04/28 09:46:25;169736.00;0.57;293.81;82077.00;0.27;142.62;;;;;20.30;1.00;;;;;;2284575;60;1687;-86
2022/04/28 09:48:54;0.00;0.00;0.62;0.00;0.00;0.62;;;;;20.80;1.00;;;;;;2284630;60;1998;-87
2022/04/28 09:51:25;65850.00;0.22;114.59;0.00;0.00;0.62;;;;;21.00;1.00;;;;;;2284673;60;1432;-88
2022/04/28 09:53:52;0.00;0.00;0.62;0.00;0.00;0.62;;;;;21.00;1.00;;;;;;2284814;60;1094;-88
2022/04/28 09:56:24;117426480.00;391.42;65588392.00;0.00;0.00;0.62;;;;;20.50;1.00;;;;;;2284629;60;1561;-89
2022/04/28 09:58:52;0.00;0.00;0.62;0.00;0.00;0.62;;;;;20.60;1.00;;;;;;2284776;60;1289;-88
2022/04/28 10:01:20;148205.00;0.49;256.71;0.00;0.00;0.62;;;;;20.70;1.00;;;;;;2284725;60;1280;-88
2022/04/28 10:03:48;22184.00;0.07;39.05;0.00;0.00;0.62;;;;;20.30;1.00;;;;;;2284728;60;1043;-89
2022/04/28 10:06:18;35687.00;0.12;62.43;0.00;0.00;0.62;;;;;19.90;1.00;;;;;;2284791;60;1003;-88
2022/04/28 10:08:47;49613.00;0.17;86.52;0.00;0.00;0.62;;;;;19.80;1.00;;;;;;2284754;60;1917;-84
2022/04/28 10:11:20;152310.00;0.51;263.79;0.00;0.00;0.62;;;;;19.80;1.00;;;;;;2284703;60;1396;-86
2022/04/28 10:13:48;0.00;0.00;0.62;0.00;0.00;0.62;;;;;19.70;1.00;;;;;;2284777;60;1739;-87
2022/04/28 10:16:18;67410.00;0.22;117.28;0.00;0.00;0.62;;;;;19.50;1.00;;;;;;2284652;60;1018;-87
2022/04/28 10:18:54;32953.00;0.11;57.69;0.00;0.00;0.62;;;;;19.80;1.00;;;;;;2284789;60;1587;-85
2022/04/28 10:21:31;85810.00;0.29;149.07;0.00;0.00;0.62;;;;;20.00;1.00;;;;;;2284643;60;1652;-88
2022/04/28 10:32:59;198970.00;0.66;344.15;82829.00;0.28;143.92;;;;;20.70;1.00;;;;;;2284786;60;663;-86
2022/04/28 10:35:44;247753.00;0.83;428.09;79946.00;0.27;138.94;;;;;20.20;1.00;;;;;;2284807;60;977;-87
2022/04/28 10:38:16;388164.00;1.29;669.46;110861.00;0.37;192.32;;;;;20.20;1.00;;;;;;2284558;60;1142;-86
2022/04/28 10:40:44;392995.00;1.31;677.76;150796.00;0.50;261.18;;;;;20.70;1.00;;;;;;2284728;60;1439;-86
2022/04/28 10:43:25;34722.00;0.12;60.76;83136.00;0.28;144.45;;;;;20.20;1.00;;;;;;2284687;60;1114;-87
2022/04/28 10:45:53;131292816.00;437.64;91704208.00;75187.00;0.25;130.72;;;;;20.00;1.00;;;;;;2284746;60;1021;-85
2022/04/28 10:48:32;194685.00;0.65;336.77;74209.00;0.25;129.03;;;;;20.50;1.00;;;;;;2284423;60;1918;-87
2022/04/28 10:51:22;0.00;0.00;0.62;0.00;0.00;0.62;;;;;20.70;1.00;;;;;;2284542;60;1301;-88
2022/04/28 10:54:09;314392.00;1.05;542.66;79144.00;0.26;137.56;;;;;21.00;1.00;;;;;;2284507;60;2326;-86
2022/04/28 10:56:58;537602.00;1.79;926.59;35823.00;0.12;62.66;;;;;21.00;1.00;;;;;;2284486;60;1103;-87
2022/04/28 10:59:35;932216.00;3.11;1612.77;86336.00;0.29;149.98;;;;;20.90;1.00;;;;;;2284606;60;1784;-86
2022/04/28 11:02:41;1056988.00;3.52;1833.67;17413.00;0.06;30.79;;;;;20.50;1.00;;;;;;2305573;40;3783;-86
2022/04/28 11:05:40;547780.00;1.83;944.13;28632.00;0.10;50.22;;;;;20.70;1.00;;;;;;2276587;61;1608;-87
2022/04/28 11:08:24;216586.00;0.72;374.47;17946.00;0.06;31.71;;;;;21.20;1.00;;;;;;2269860;61;1922;-87
2022/04/28 11:11:11;130650.00;0.44;226.45;9480.00;0.03;17.05;;;;;20.90;1.00;;;;;;2276467;61;1626;-87
2022/04/28 11:13:40;830094.00;2.77;1433.66;86700.00;0.29;150.61;;;;;20.70;1.00;;;;;;2276463;61;1254;-87
2022/04/28 11:16:09;1240669.00;4.14;2163.93;86296.00;0.29;149.91;;;;;20.50;1.00;;;;;;2276511;61;1297;-86
2022/04/28 11:18:36;730865.00;2.44;1260.80;32780.00;0.11;57.39;;;;;20.20;1.00;;;;;;2276368;61;1072;-87
2022/04/28 11:21:05;536750.00;1.79;925.12;11877.00;0.04;21.20;;;;;20.30;1.00;;;;;;2276311;61;1279;-89
2022/04/28 11:23:37;662570.00;2.21;1142.39;10001.00;0.03;17.95;;;;;20.20;1.00;;;;;;2276366;61;1530;-88
2022/04/28 11:26:05;935170.00;3.12;1617.98;84045.00;0.28;146.02;;;;;20.00;1.00;;;;;;2276256;61;1121;-88
2022/04/28 11:28:35;1438236.00;4.79;2527.43;161925.00;0.54;280.36;;;;;20.10;1.00;;;;;;2276407;61;2000;-89
2022/04/28 11:31:06;810445.00;2.70;1399.35;57797.00;0.19;100.67;;;;;20.70;1.00;;;;;;2276430;61;1378;-86
2022/04/28 11:33:33;1169681.00;3.90;2035.50;118618.00;0.40;205.70;;;;;21.00;1.00;;;;;;2276428;61;1161;-88
2022/04/28 11:36:01;1148004.00;3.83;1996.49;51732.00;0.17;90.18;;;;;21.00;1.00;;;;;;2276425;61;950;-87
2022/04/28 11:38:31;1095135.00;3.65;1901.73;91051.00;0.30;158.12;;;;;21.00;1.00;;;;;;2276326;61;1554;-88
2022/04/28 11:41:03;1138022.00;3.79;1978.56;195469.00;0.65;338.12;;;;;21.20;1.00;;;;;;2276274;61;1386;-88
2022/04/28 11:43:32;123374488.00;411.25;76078856.00;173835.00;0.58;300.87;;;;;20.90;1.00;;;;;;2276321;61;1031;-88
2022/04/28 11:46:03;589950.00;1.97;1016.87;130288.00;0.43;225.83;;;;;20.60;1.00;;;;;;2276231;61;1035;-86
2022/04/28 11:48:30;273674.00;0.91;472.66;78845.00;0.26;137.04;;;;;20.50;1.00;;;;;;2278790;40;3442;-86
2022/04/28 11:51:04;349987.00;1.17;603.84;122407.00;0.41;212.23;;;;;20.90;1.00;;;;;;2284119;60;1659;-87
2022/04/28 11:53:42;941063.00;3.14;1628.36;189961.00;0.63;328.64;;;;;21.20;1.00;;;;;;2283987;60;1062;-88
2022/04/28 11:56:17;787020.00;2.62;1358.50;40830.00;0.14;71.32;;;;;20.90;1.00;;;;;;2284287;60;1142;-87
2022/04/28 11:58:47;875606.00;2.92;1513.32;95676.00;0.32;166.11;;;;;21.00;1.00;;;;;;2284490;60;1026;-86